Terminal Aerodrome Forecast
Issued by NWS Topeka, KS

Home | Current Version | Previous Version | Graphics & Text | Print | Product List | Glossary On
Versions: 1 2 3 4 5 6 7 8 9 10 11 12 13 14 15 16 17 18 19 20
107
FTUS43 KTOP 301311 AAA
TAFTOP
TAF AMD
KTOP 301311Z 3013/0112 08011KT P6SM FEW004 BKN035
     FM301600 22010KT P6SM SCT020 BKN040
     FM302100 27009KT P6SM SCT025 BKN040
     FM010600 27010KT P6SM SCT006 BKN014=

USA.gov is the U.S. government's official web portal to all federal, state and local government web resources and services.